Time;durP1;ratioP1;P1;durP2;ratioP2;P2;SDS_P1;SDS_P2;PMS_P1;PMS_P2;Temp;Humidity;BMP_temperature;BMP_pressure;BME280_temperature;BME280_humidity;BME280_pressure;Samples;Min_cycle;Max_cycle;Signal;HPM_P1;HPM_P2
2022/09/23 00:00:39;;;;;;;6.40;5.75;;;;;;;;;;5048537;28;20052;-71
2022/09/23 00:03:05;;;;;;;6.95;5.43;;;;;;;;;;5057707;28;20397;-71
2022/09/23 00:05:31;;;;;;;7.60;6.15;;;;;;;;;;5028146;28;20049;-71
2022/09/23 00:07:56;;;;;;;9.55;5.80;;;;;;;;;;5061201;28;20497;-70
2022/09/23 00:10:24;;;;;;;8.43;5.85;;;;;;;;;;5054482;28;20153;-70
2022/09/23 00:12:50;;;;;;;7.70;5.82;;;;;;;;;;5062682;28;20121;-72
2022/09/23 00:15:16;;;;;;;9.07;6.47;;;;;;;;;;5057204;28;20048;-70
2022/09/23 00:17:42;;;;;;;6.65;5.97;;;;;;;;;;5052512;28;20125;-71
2022/09/23 00:20:08;;;;;;;7.70;6.53;;;;;;;;;;5050049;28;20919;-70
2022/09/23 00:22:35;;;;;;;8.10;6.30;;;;;;;;;;5058328;28;20049;-70
2022/09/23 00:25:02;;;;;;;6.45;5.70;;;;;;;;;;5056850;28;20044;-70
2022/09/23 00:27:28;;;;;;;9.60;6.93;;;;;;;;;;5048347;28;20169;-70
2022/09/23 00:29:54;;;;;;;8.65;6.47;;;;;;;;;;5054369;28;20803;-70
2022/09/23 00:32:19;;;;;;;10.85;6.85;;;;;;;;;;5054756;28;20505;-70
2022/09/23 00:34:46;;;;;;;8.50;6.70;;;;;;;;;;5050614;28;20136;-70
2022/09/23 00:37:12;;;;;;;10.05;7.32;;;;;;;;;;5048480;28;20045;-70
2022/09/23 00:39:38;;;;;;;8.48;6.75;;;;;;;;;;5053309;28;20041;-70
2022/09/23 00:42:04;;;;;;;9.10;6.97;;;;;;;;;;5051986;28;20060;-70
2022/09/23 00:44:47;;;;;;;8.50;6.47;;;;;;;;;;5055268;28;20049;-70
2022/09/23 00:47:32;;;;;;;8.88;6.97;;;;;;;;;;5053641;28;20049;-71
2022/09/23 00:50:17;;;;;;;8.57;6.55;;;;;;;;;;5054072;28;20040;-70
2022/09/23 00:52:43;;;;;;;8.63;6.57;;;;;;;;;;5031167;28;20044;-71
2022/09/23 00:55:32;;;;;;;8.10;6.53;;;;;;;;;;5056372;28;20134;-70
2022/09/23 00:58:01;;;;;;;9.27;6.63;;;;;;;;;;5049176;28;20475;-70
2022/09/23 01:00:27;;;;;;;10.07;7.10;;;;;;;;;;5053873;28;20052;-70
2022/09/23 01:02:53;;;;;;;8.23;7.13;;;;;;;;;;5054964;28;20040;-70
2022/09/23 01:05:19;;;;;;;9.18;7.55;;;;;;;;;;5049871;28;20147;-70
2022/09/23 01:07:45;;;;;;;10.13;7.90;;;;;;;;;;5053782;28;20939;-71
2022/09/23 01:10:13;;;;;;;9.63;7.95;;;;;;;;;;5053490;28;20056;-71
2022/09/23 01:12:57;;;;;;;9.98;7.75;;;;;;;;;;5047517;28;20036;-71
2022/09/23 01:15:34;;;;;;;10.65;7.57;;;;;;;;;;5050543;28;20135;-70
2022/09/23 01:18:03;;;;;;;9.82;7.43;;;;;;;;;;5056050;28;20505;-71
2022/09/23 01:20:34;;;;;;;11.63;8.07;;;;;;;;;;5056347;28;20477;-72
2022/09/23 01:23:51;;;;;;;9.57;7.90;;;;;;;;;;5050398;28;20469;-71
2022/09/23 01:26:31;;;;;;;11.40;7.80;;;;;;;;;;4963589;28;20050;-71
2022/09/23 01:29:35;;;;;;;19.15;10.85;;;;;;;;;;5031933;28;20114;-72
2022/09/23 01:32:14;;;;;;;42.60;19.75;;;;;;;;;;5051948;28;20040;-72
2022/09/23 01:34:54;;;;;;;18.75;11.60;;;;;;;;;;5055839;28;20048;-72
2022/09/23 01:37:29;;;;;;;10.40;8.18;;;;;;;;;;5061215;28;20056;-73
2022/09/23 01:40:05;;;;;;;11.65;8.32;;;;;;;;;;5055827;28;20051;-73
2022/09/23 01:42:38;;;;;;;13.05;9.27;;;;;;;;;;5060955;28;20048;-74
2022/09/23 01:45:09;;;;;;;10.57;8.13;;;;;;;;;;5061211;28;20054;-71
2022/09/23 01:47:54;;;;;;;11.15;8.00;;;;;;;;;;5060268;28;20041;-69
2022/09/23 01:53:17;;;;;;;12.23;8.37;;;;;;;;;;5052921;28;20048;-70
2022/09/23 01:55:48;;;;;;;11.98;8.93;;;;;;;;;;5054168;28;20059;-69
2022/09/23 01:58:21;;;;;;;11.10;8.88;;;;;;;;;;5025833;28;20071;-70
2022/09/23 02:00:59;;;;;;;10.25;7.95;;;;;;;;;;5042262;28;20045;-69
2022/09/23 02:03:33;;;;;;;13.65;8.77;;;;;;;;;;5050654;28;20532;-69
2022/09/23 02:06:10;;;;;;;16.42;9.55;;;;;;;;;;5060316;28;20052;-69
2022/09/23 02:08:55;;;;;;;13.35;10.30;;;;;;;;;;5058458;28;20048;-71
2022/09/23 02:11:22;;;;;;;16.00;11.65;;;;;;;;;;5053078;28;20041;-71
2022/09/23 02:14:09;;;;;;;17.75;12.98;;;;;;;;;;5049017;28;21055;-71
2022/09/23 02:16:55;;;;;;;18.10;12.65;;;;;;;;;;5060620;28;20090;-71
2022/09/23 02:19:30;;;;;;;18.23;12.93;;;;;;;;;;5060235;28;20049;-71
2022/09/23 02:22:10;;;;;;;19.52;12.48;;;;;;;;;;5059388;28;20052;-72
2022/09/23 02:24:38;;;;;;;18.70;12.95;;;;;;;;;;5057387;28;20036;-72
2022/09/23 02:27:39;;;;;;;17.10;11.98;;;;;;;;;;5053871;28;20071;-70
2022/09/23 02:30:21;;;;;;;23.02;12.63;;;;;;;;;;5049572;28;20053;-70
2022/09/23 02:33:16;;;;;;;20.75;13.07;;;;;;;;;;5053024;28;20079;-69
2022/09/23 02:35:56;;;;;;;16.55;11.57;;;;;;;;;;5054798;28;20055;-72
2022/09/23 02:38:30;;;;;;;16.45;12.07;;;;;;;;;;5032459;28;20056;-72
2022/09/23 02:41:14;;;;;;;17.70;12.90;;;;;;;;;;5047841;28;20055;-73
2022/09/23 02:43:50;;;;;;;21.50;13.75;;;;;;;;;;5055570;28;20123;-71
2022/09/23 02:46:16;;;;;;;17.95;11.75;;;;;;;;;;5029518;28;20052;-73
2022/09/23 02:49:29;;;;;;;17.95;12.98;;;;;;;;;;5052863;28;20052;-69
2022/09/23 02:51:58;;;;;;;15.73;11.10;;;;;;;;;;4991693;28;20110;-69
2022/09/23 02:54:27;;;;;;;13.70;10.45;;;;;;;;;;5048555;28;20052;-70
2022/09/23 02:56:52;;;;;;;15.63;9.85;;;;;;;;;;5051933;28;20124;-70
2022/09/23 02:59:20;;;;;;;13.13;9.80;;;;;;;;;;5049789;28;20067;-70
2022/09/23 03:01:53;;;;;;;12.65;10.00;;;;;;;;;;5050571;28;20102;-70
2022/09/23 03:04:53;;;;;;;14.57;9.77;;;;;;;;;;5052840;28;20049;-70
2022/09/23 03:07:43;;;;;;;13.50;9.20;;;;;;;;;;5054586;28;20071;-70
2022/09/23 03:10:35;;;;;;;12.80;9.02;;;;;;;;;;5053998;28;20432;-70
2022/09/23 03:13:16;;;;;;;14.68;9.57;;;;;;;;;;5051948;28;20055;-69
2022/09/23 03:15:59;;;;;;;16.50;10.85;;;;;;;;;;5050674;28;20048;-70
2022/09/23 03:18:39;;;;;;;15.30;11.20;;;;;;;;;;5020425;28;20057;-70
2022/09/23 03:21:22;;;;;;;15.30;9.95;;;;;;;;;;5048013;28;20060;-70
2022/09/23 03:23:49;;;;;;;17.55;11.55;;;;;;;;;;5053957;28;20049;-70
2022/09/23 03:26:21;;;;;;;14.98;10.50;;;;;;;;;;5052818;28;20052;-70
2022/09/23 03:28:46;;;;;;;;;;;;;;;;;;5051199;28;20495;-70
2022/09/23 03:31:13;;;;;;;15.20;9.82;;;;;;;;;;5052406;28;19921;-70
2022/09/23 03:33:45;;;;;;;18.35;8.82;;;;;;;;;;5051541;28;20036;-70
2022/09/23 03:39:05;;;;;;;10.23;7.75;;;;;;;;;;5055444;28;20500;-71
2022/09/23 03:41:37;;;;;;;9.20;7.47;;;;;;;;;;5055496;28;20539;-70
2022/09/23 03:44:03;;;;;;;11.25;8.75;;;;;;;;;;5055543;28;20064;-70
2022/09/23 03:46:29;;;;;;;12.45;9.00;;;;;;;;;;5055871;28;20476;-70
2022/09/23 03:49:12;;;;;;;9.30;8.02;;;;;;;;;;5055185;28;20047;-70
2022/09/23 03:51:38;;;;;;;13.50;9.43;;;;;;;;;;5052281;28;20051;-70
2022/09/23 03:54:03;;;;;;;14.07;9.43;;;;;;;;;;5053605;28;20052;-70
2022/09/23 03:56:29;;;;;;;15.40;9.40;;;;;;;;;;5053040;28;20079;-71
2022/09/23 03:58:54;;;;;;;10.75;8.93;;;;;;;;;;5050861;28;20170;-71
2022/09/23 04:01:20;;;;;;;17.80;9.70;;;;;;;;;;5052154;28;20048;-69
2022/09/23 04:03:45;;;;;;;13.32;9.85;;;;;;;;;;5054251;28;20508;-72
2022/09/23 04:06:10;;;;;;;16.67;10.15;;;;;;;;;;5062772;28;20036;-71
2022/09/23 04:08:36;;;;;;;17.05;11.35;;;;;;;;;;5049894;28;20523;-70
2022/09/23 04:11:03;;;;;;;19.25;12.43;;;;;;;;;;5047775;28;20049;-70
2022/09/23 04:13:29;;;;;;;15.77;11.25;;;;;;;;;;5052246;28;20048;-72
2022/09/23 04:15:55;;;;;;;16.33;12.07;;;;;;;;;;5053906;28;20058;-70
2022/09/23 04:18:20;;;;;;;15.38;11.00;;;;;;;;;;5062488;28;20048;-72
2022/09/23 04:20:46;;;;;;;16.98;11.52;;;;;;;;;;5044281;28;20048;-72
2022/09/23 04:23:11;;;;;;;18.65;11.38;;;;;;;;;;5045320;28;20044;-71
2022/09/23 04:25:47;;;;;;;17.42;10.93;;;;;;;;;;5045999;28;20048;-70
2022/09/23 04:28:13;;;;;;;11.57;8.63;;;;;;;;;;5045928;28;20405;-70
2022/09/23 04:30:43;;;;;;;11.55;8.65;;;;;;;;;;5045709;28;20041;-72
2022/09/23 04:33:12;;;;;;;11.68;7.43;;;;;;;;;;5025484;28;20114;-70
2022/09/23 04:35:39;;;;;;;12.18;8.57;;;;;;;;;;5046188;28;20048;-72
2022/09/23 04:38:09;;;;;;;13.48;7.00;;;;;;;;;;5045159;28;20433;-71
2022/09/23 04:40:35;;;;;;;11.07;7.32;;;;;;;;;;5048733;28;20063;-71
2022/09/23 04:43:00;;;;;;;8.88;7.07;;;;;;;;;;5048981;28;20044;-71
2022/09/23 04:45:26;;;;;;;9.35;7.00;;;;;;;;;;5045442;28;20101;-72
2022/09/23 04:47:52;;;;;;;8.98;6.70;;;;;;;;;;5041538;28;20071;-71
2022/09/23 04:50:17;;;;;;;8.35;6.45;;;;;;;;;;5024815;28;20436;-72
2022/09/23 04:52:43;;;;;;;13.35;6.50;;;;;;;;;;5043685;28;20493;-71
2022/09/23 04:55:08;;;;;;;8.27;6.72;;;;;;;;;;5039067;28;20516;-71
2022/09/23 04:57:34;;;;;;;7.65;6.32;;;;;;;;;;5041998;28;20040;-72
2022/09/23 05:00:00;;;;;;;8.15;6.40;;;;;;;;;;5041423;28;20444;-70
2022/09/23 05:02:27;;;;;;;8.10;6.40;;;;;;;;;;5046342;28;20405;-69
2022/09/23 05:04:52;;;;;;;8.85;6.38;;;;;;;;;;5049106;28;20098;-70
2022/09/23 05:07:18;;;;;;;10.00;5.93;;;;;;;;;;5060378;28;20040;-72
2022/09/23 05:09:44;;;;;;;7.10;5.90;;;;;;;;;;5051629;28;20491;-71
2022/09/23 05:12:10;;;;;;;9.77;6.60;;;;;;;;;;5051368;28;20576;-71
2022/09/23 05:14:37;;;;;;;10.35;6.82;;;;;;;;;;5053462;28;20143;-72
2022/09/23 05:17:03;;;;;;;6.32;4.93;;;;;;;;;;5049038;28;20052;-71
2022/09/23 05:19:30;;;;;;;8.98;5.60;;;;;;;;;;5051762;28;20508;-71
2022/09/23 05:21:56;;;;;;;6.85;5.65;;;;;;;;;;5023430;28;20134;-72
2022/09/23 05:24:23;;;;;;;5.80;5.22;;;;;;;;;;5044666;28;20057;-71
2022/09/23 05:26:55;;;;;;;8.35;5.75;;;;;;;;;;5035794;28;20064;-71
2022/09/23 05:29:20;;;;;;;9.27;5.38;;;;;;;;;;5047690;28;20042;-71
2022/09/23 05:31:45;;;;;;;8.02;5.88;;;;;;;;;;5043478;28;20645;-70
2022/09/23 05:34:11;;;;;;;8.40;6.40;;;;;;;;;;5044199;28;20057;-70
2022/09/23 05:36:36;;;;;;;6.55;5.47;;;;;;;;;;5051154;28;20044;-70
2022/09/23 05:39:03;;;;;;;9.13;5.63;;;;;;;;;;5046980;28;20501;-70
2022/09/23 05:41:28;;;;;;;6.40;4.95;;;;;;;;;;5059274;28;20049;-71
2022/09/23 05:43:55;;;;;;;7.35;4.30;;;;;;;;;;5061110;28;20105;-70
2022/09/23 05:46:28;;;;;;;5.35;3.70;;;;;;;;;;5051859;28;20056;-71
2022/09/23 05:48:56;;;;;;;4.75;4.15;;;;;;;;;;5060049;28;20048;-70
2022/09/23 05:51:25;;;;;;;3.88;3.20;;;;;;;;;;5059302;28;20052;-70
2022/09/23 05:53:52;;;;;;;5.25;3.60;;;;;;;;;;5037093;28;20052;-69
2022/09/23 05:56:20;;;;;;;3.92;3.50;;;;;;;;;;5042760;28;20064;-70
2022/09/23 05:58:48;;;;;;;3.70;3.30;;;;;;;;;;5050177;28;20048;-70
2022/09/23 06:01:23;;;;;;;3.97;3.45;;;;;;;;;;5056467;28;20163;-71
2022/09/23 06:03:50;;;;;;;8.23;3.83;;;;;;;;;;5059094;28;20047;-73
2022/09/23 06:06:18;;;;;;;4.15;3.63;;;;;;;;;;5058797;28;20052;-69
2022/09/23 06:08:45;;;;;;;3.97;3.10;;;;;;;;;;5059411;28;20047;-70
2022/09/23 06:11:11;;;;;;;5.60;3.50;;;;;;;;;;5060290;28;20040;-69
2022/09/23 06:13:37;;;;;;;3.47;3.17;;;;;;;;;;5057530;28;20094;-70
2022/09/23 06:16:11;;;;;;;7.32;3.40;;;;;;;;;;5054450;28;20573;-71
2022/09/23 06:18:39;;;;;;;6.28;3.25;;;;;;;;;;5043530;28;20044;-70
2022/09/23 06:21:05;;;;;;;4.53;3.22;;;;;;;;;;5052168;28;20131;-70
2022/09/23 06:23:31;;;;;;;7.63;3.05;;;;;;;;;;5046715;28;20130;-70
2022/09/23 06:26:04;;;;;;;4.18;3.05;;;;;;;;;;5051641;28;20098;-67
2022/09/23 06:28:32;;;;;;;4.15;3.55;;;;;;;;;;5052919;28;21007;-67
2022/09/23 06:31:02;;;;;;;4.35;3.25;;;;;;;;;;5046946;28;20057;-68
2022/09/23 06:33:28;;;;;;;5.07;3.10;;;;;;;;;;5059684;28;20090;-69
2022/09/23 06:35:55;;;;;;;3.95;3.10;;;;;;;;;;5040557;28;20052;-67
2022/09/23 06:38:21;;;;;;;5.35;3.75;;;;;;;;;;5049388;28;21012;-67
2022/09/23 06:40:50;;;;;;;4.88;2.90;;;;;;;;;;5048735;28;20048;-68
2022/09/23 06:43:15;;;;;;;3.67;3.10;;;;;;;;;;5059605;28;20052;-68
2022/09/23 06:45:40;;;;;;;4.90;2.90;;;;;;;;;;5058888;28;20036;-68
2022/09/23 06:48:08;;;;;;;2.97;2.78;;;;;;;;;;5053944;28;20045;-69
2022/09/23 06:50:35;;;;;;;5.13;3.22;;;;;;;;;;5042732;28;20048;-69
2022/09/23 06:53:02;;;;;;;2.90;2.70;;;;;;;;;;5042237;28;20076;-68
2022/09/23 06:55:27;;;;;;;4.30;3.08;;;;;;;;;;5038989;28;20124;-68
2022/09/23 06:57:59;;;;;;;5.05;2.90;;;;;;;;;;5048723;28;20453;-68
2022/09/23 07:00:25;;;;;;;2.72;2.25;;;;;;;;;;5050781;28;20049;-67
2022/09/23 07:02:51;;;;;;;4.00;2.50;;;;;;;;;;5058098;28;20028;-67
2022/09/23 07:05:17;;;;;;;2.95;2.58;;;;;;;;;;5057700;28;20439;-67
2022/09/23 07:07:43;;;;;;;4.13;2.40;;;;;;;;;;5055119;28;20059;-68
2022/09/23 07:10:10;;;;;;;3.90;2.53;;;;;;;;;;5051744;28;20148;-68
2022/09/23 07:12:35;;;;;;;2.35;2.15;;;;;;;;;;5054105;28;20102;-68
2022/09/23 07:15:01;;;;;;;2.42;2.22;;;;;;;;;;5063795;28;20456;-68
2022/09/23 07:17:27;;;;;;;3.22;2.47;;;;;;;;;;5062016;28;20044;-68
2022/09/23 07:19:53;;;;;;;2.50;2.30;;;;;;;;;;5062946;28;20036;-68
2022/09/23 07:22:23;;;;;;;3.10;2.58;;;;;;;;;;5061995;28;20182;-69
2022/09/23 07:24:55;;;;;;;2.45;2.25;;;;;;;;;;5057533;28;20041;-69
2022/09/23 07:27:25;;;;;;;;;;;;;;;;;;5057830;28;20493;-68
2022/09/23 07:29:51;;;;;;;2.50;2.30;;;;;;;;;;5058848;28;19920;-68
2022/09/23 07:32:18;;;;;;;2.28;2.00;;;;;;;;;;5060823;28;20087;-68
2022/09/23 07:34:44;;;;;;;2.47;2.28;;;;;;;;;;5061606;28;20106;-68
2022/09/23 07:37:09;;;;;;;4.47;2.22;;;;;;;;;;5062605;28;20515;-68
2022/09/23 07:39:39;;;;;;;5.13;2.38;;;;;;;;;;5062502;28;20045;-68
2022/09/23 07:42:05;;;;;;;2.38;2.17;;;;;;;;;;5052887;28;20080;-68
2022/09/23 07:44:31;;;;;;;3.03;2.33;;;;;;;;;;5048327;28;20041;-67
2022/09/23 07:46:58;;;;;;;2.28;2.08;;;;;;;;;;5061918;28;20109;-69
2022/09/23 07:49:24;;;;;;;3.58;2.40;;;;;;;;;;5055671;28;20044;-67
2022/09/23 07:51:50;;;;;;;2.88;2.58;;;;;;;;;;5054463;28;20456;-68
2022/09/23 07:54:17;;;;;;;2.40;2.20;;;;;;;;;;5062095;28;20542;-68
2022/09/23 07:56:43;;;;;;;3.13;2.33;;;;;;;;;;5061608;28;20405;-67
2022/09/23 07:59:14;;;;;;;3.70;2.53;;;;;;;;;;5058840;28;20493;-68
2022/09/23 08:01:51;;;;;;;4.05;2.63;;;;;;;;;;5039131;28;20133;-67
2022/09/23 08:04:20;;;;;;;2.85;2.65;;;;;;;;;;5026921;28;20053;-68
2022/09/23 08:06:49;;;;;;;3.05;2.30;;;;;;;;;;5062266;28;20071;-66
2022/09/23 08:09:17;;;;;;;3.13;2.53;;;;;;;;;;5062706;28;20044;-67
2022/09/23 08:11:42;;;;;;;6.00;2.45;;;;;;;;;;5062192;28;20127;-66
2022/09/23 08:14:10;;;;;;;3.60;2.30;;;;;;;;;;5062118;28;21001;-67
2022/09/23 08:16:36;;;;;;;5.47;2.33;;;;;;;;;;5060655;28;20041;-67
2022/09/23 08:19:01;;;;;;;3.55;2.67;;;;;;;;;;5062502;28;20594;-67
2022/09/23 08:21:28;;;;;;;6.10;2.40;;;;;;;;;;5061969;28;20135;-68
2022/09/23 08:23:53;;;;;;;3.50;2.53;;;;;;;;;;5043828;28;20082;-66
2022/09/23 08:26:19;;;;;;;2.50;2.30;;;;;;;;;;5061760;28;20184;-68
2022/09/23 08:28:46;;;;;;;5.85;2.33;;;;;;;;;;5062412;28;20052;-66
2022/09/23 08:31:12;;;;;;;4.40;2.80;;;;;;;;;;5061625;28;20082;-67
2022/09/23 08:33:39;;;;;;;2.28;2.08;;;;;;;;;;5062401;28;20420;-67
2022/09/23 08:36:06;;;;;;;2.42;2.22;;;;;;;;;;5061766;28;20044;-68
2022/09/23 08:38:32;;;;;;;5.78;2.30;;;;;;;;;;5053330;28;20040;-68
2022/09/23 08:41:19;;;;;;;4.45;2.63;;;;;;;;;;5054218;28;20044;-68
2022/09/23 08:43:50;;;;;;;2.03;1.83;;;;;;;;;;5057779;28;20053;-68
2022/09/23 08:46:24;;;;;;;5.53;2.50;;;;;;;;;;5057220;28;20157;-68
2022/09/23 08:48:51;;;;;;;4.18;2.58;;;;;;;;;;5054154;28;20135;-67
2022/09/23 08:51:22;;;;;;;2.75;2.20;;;;;;;;;;5055294;28;20049;-68
2022/09/23 08:53:48;;;;;;;3.83;2.30;;;;;;;;;;5037726;28;20045;-68
2022/09/23 08:56:16;;;;;;;2.15;1.95;;;;;;;;;;5060999;28;20068;-68
2022/09/23 08:58:47;;;;;;;3.55;2.30;;;;;;;;;;5051325;28;20131;-69
2022/09/23 09:01:43;;;;;;;4.47;2.25;;;;;;;;;;5058642;28;20731;-68
2022/09/23 09:04:11;;;;;;;2.83;2.10;;;;;;;;;;5056660;28;20137;-67
2022/09/23 09:06:41;;;;;;;3.03;2.08;;;;;;;;;;5054011;28;20044;-68
2022/09/23 09:09:22;;;;;;;3.95;2.00;;;;;;;;;;5061015;28;20056;-68
2022/09/23 09:11:52;;;;;;;4.17;2.30;;;;;;;;;;5053953;28;20046;-69
2022/09/23 09:14:25;;;;;;;2.85;2.10;;;;;;;;;;5061140;28;20044;-66
2022/09/23 09:16:57;;;;;;;5.57;2.40;;;;;;;;;;5059908;28;20078;-68
2022/09/23 09:19:34;;;;;;;3.60;2.10;;;;;;;;;;5055682;28;20079;-69
2022/09/23 09:22:01;;;;;;;2.13;1.92;;;;;;;;;;5040774;28;20048;-70
2022/09/23 09:24:33;;;;;;;1.98;1.88;;;;;;;;;;5055662;28;20053;-68
2022/09/23 09:27:07;;;;;;;2.72;2.10;;;;;;;;;;5061259;28;20059;-68
2022/09/23 09:29:37;;;;;;;3.42;1.80;;;;;;;;;;5053539;28;20037;-67
2022/09/23 09:32:18;;;;;;;2.03;1.70;;;;;;;;;;5060378;28;20117;-69
2022/09/23 09:34:56;;;;;;;3.13;1.70;;;;;;;;;;5052786;28;20071;-69
2022/09/23 09:37:39;;;;;;;2.58;2.17;;;;;;;;;;5061119;28;20056;-69
2022/09/23 09:40:10;;;;;;;4.25;1.60;;;;;;;;;;5060383;28;20055;-68
2022/09/23 09:42:39;;;;;;;4.10;1.92;;;;;;;;;;5060643;28;20447;-69
2022/09/23 09:45:52;;;;;;;2.15;1.90;;;;;;;;;;5058788;28;20044;-67
2022/09/23 09:48:36;;;;;;;2.80;2.03;;;;;;;;;;5007050;28;20057;-69
2022/09/23 09:51:20;;;;;;;2.00;1.80;;;;;;;;;;5060781;28;20156;-68
2022/09/23 09:53:47;;;;;;;3.33;1.85;;;;;;;;;;5053197;28;20071;-69
2022/09/23 09:56:15;;;;;;;5.80;2.03;;;;;;;;;;5059695;28;20839;-70
2022/09/23 09:58:57;;;;;;;2.53;2.00;;;;;;;;;;5058968;28;20127;-69
2022/09/23 10:01:24;;;;;;;3.58;2.15;;;;;;;;;;5059512;28;20056;-67
2022/09/23 10:03:52;;;;;;;5.07;2.17;;;;;;;;;;5060042;28;20036;-68
2022/09/23 10:06:26;;;;;;;2.20;2.00;;;;;;;;;;5060234;28;20127;-67
2022/09/23 10:09:00;;;;;;;4.05;2.15;;;;;;;;;;5060236;28;20127;-68
2022/09/23 10:11:27;;;;;;;3.70;2.35;;;;;;;;;;5060466;28;20063;-69
2022/09/23 10:14:01;;;;;;;7.72;2.10;;;;;;;;;;5059398;28;20047;-68
2022/09/23 10:16:30;;;;;;;3.42;2.10;;;;;;;;;;5057094;28;20056;-69
2022/09/23 10:18:57;;;;;;;2.00;1.90;;;;;;;;;;5061023;28;20070;-69
2022/09/23 10:21:24;;;;;;;4.43;2.30;;;;;;;;;;5052866;28;20053;-69
2022/09/23 10:23:52;;;;;;;2.83;2.05;;;;;;;;;;5059145;28;20492;-69
2022/09/23 10:26:50;;;;;;;6.05;2.47;;;;;;;;;;5060094;28;20048;-68
2022/09/23 10:29:24;;;;;;;6.47;2.40;;;;;;;;;;5056353;28;20044;-69
2022/09/23 10:32:22;;;;;;;1.98;1.80;;;;;;;;;;5058635;28;20426;-68
2022/09/23 10:34:54;;;;;;;6.07;2.50;;;;;;;;;;5051345;28;20047;-69
2022/09/23 10:37:32;;;;;;;6.22;2.15;;;;;;;;;;5059599;28;20527;-68
2022/09/23 10:48:59;;;;;;;8.93;2.28;;;;;;;;;;5027819;28;20640;-66
2022/09/23 10:51:57;;;;;;;3.45;2.10;;;;;;;;;;5043061;28;20045;-68
2022/09/23 10:54:28;;;;;;;4.18;1.80;;;;;;;;;;5035670;28;20060;-68
2022/09/23 10:56:59;;;;;;;4.30;2.20;;;;;;;;;;5026019;28;20040;-68
2022/09/23 10:59:42;;;;;;;4.53;2.30;;;;;;;;;;5041508;28;20033;-68
2022/09/23 11:06:04;;;;;;;5.45;2.13;;;;;;;;;;5040505;28;20052;-69
2022/09/23 11:09:13;;;;;;;4.40;2.08;;;;;;;;;;5041808;28;20179;-67
2022/09/23 11:11:54;;;;;;;3.28;2.30;;;;;;;;;;5003014;28;20852;-67
2022/09/23 11:14:51;;;;;;;2.17;1.98;;;;;;;;;;5021241;28;20497;-67
2022/09/23 11:17:39;;;;;;;2.70;2.10;;;;;;;;;;5040261;28;20049;-67
2022/09/23 11:22:52;;;;;;;2.40;2.05;;;;;;;;;;5060256;27;20416;-68
2022/09/23 11:25:32;;;;;;;3.63;2.20;;;;;;;;;;5030568;28;20525;-71
2022/09/23 11:28:20;;;;;;;3.45;2.00;;;;;;;;;;5032425;28;20064;-70
2022/09/23 11:31:24;;;;;;;2.35;2.15;;;;;;;;;;5030817;28;20049;-70
2022/09/23 11:34:08;;;;;;;2.60;2.40;;;;;;;;;;5030199;28;20087;-70
2022/09/23 11:36:55;;;;;;;3.10;2.15;;;;;;;;;;5032192;28;20049;-70
2022/09/23 11:39:34;;;;;;;2.17;1.85;;;;;;;;;;5033121;28;20044;-70
2022/09/23 11:42:02;;;;;;;3.38;2.15;;;;;;;;;;5033697;28;20886;-70
2022/09/23 11:44:31;;;;;;;2.70;2.10;;;;;;;;;;5036595;28;20222;-69
2022/09/23 11:47:25;;;;;;;4.32;1.92;;;;;;;;;;5036813;28;20417;-69
2022/09/23 11:50:24;;;;;;;5.88;1.70;;;;;;;;;;5032796;28;20138;-69
2022/09/23 11:53:01;;;;;;;1.67;1.58;;;;;;;;;;5035288;28;20056;-69
2022/09/23 11:55:33;;;;;;;2.78;1.70;;;;;;;;;;5034046;28;20141;-70
2022/09/23 11:58:17;;;;;;;4.32;2.00;;;;;;;;;;5034337;28;20041;-69
2022/09/23 12:00:51;;;;;;;2.22;2.00;;;;;;;;;;5033233;28;20056;-70
2022/09/23 12:03:30;;;;;;;3.38;1.50;;;;;;;;;;5035228;28;20394;-70
2022/09/23 12:05:57;;;;;;;2.78;2.00;;;;;;;;;;5036518;28;20068;-71
2022/09/23 12:08:35;;;;;;;1.70;1.40;;;;;;;;;;5034415;28;20077;-70
2022/09/23 12:11:17;;;;;;;4.75;1.60;;;;;;;;;;5038418;28;20048;-70
2022/09/23 12:14:02;;;;;;;2.22;1.52;;;;;;;;;;5028698;28;20045;-70
2022/09/23 12:16:47;;;;;;;3.78;1.42;;;;;;;;;;5043577;28;20048;-70
2022/09/23 12:19:50;;;;;;;1.67;1.50;;;;;;;;;;5030929;28;20045;-70
2022/09/23 12:23:12;;;;;;;2.35;1.50;;;;;;;;;;5031709;28;20485;-70
2022/09/23 12:25:45;;;;;;;3.25;1.67;;;;;;;;;;5013678;28;20652;-68
2022/09/23 12:28:22;;;;;;;3.58;1.63;;;;;;;;;;5032061;28;20041;-69
2022/09/23 12:30:50;;;;;;;2.95;1.70;;;;;;;;;;5034995;28;20099;-69
2022/09/23 12:33:25;;;;;;;3.33;1.48;;;;;;;;;;5024778;28;20052;-69
2022/09/23 12:35:53;;;;;;;4.75;1.40;;;;;;;;;;5020307;28;20045;-69
2022/09/23 12:38:24;;;;;;;2.58;1.92;;;;;;;;;;5022822;28;20076;-69
2022/09/23 12:40:52;;;;;;;1.90;1.58;;;;;;;;;;5035189;28;20061;-69
2022/09/23 12:43:29;;;;;;;2.00;1.50;;;;;;;;;;5020796;28;20042;-69
2022/09/23 12:46:17;;;;;;;1.88;1.55;;;;;;;;;;5022177;28;20132;-69
2022/09/23 12:49:02;;;;;;;2.25;1.90;;;;;;;;;;5022100;28;20092;-69
2022/09/23 12:51:28;;;;;;;6.15;1.77;;;;;;;;;;5020863;28;20471;-71
2022/09/23 12:53:54;;;;;;;1.85;1.70;;;;;;;;;;5021044;28;20128;-70
2022/09/23 12:56:25;;;;;;;4.78;1.65;;;;;;;;;;5023455;28;20049;-69
2022/09/23 12:59:22;;;;;;;1.98;1.60;;;;;;;;;;5022854;28;20053;-70
2022/09/23 13:01:48;;;;;;;2.17;1.45;;;;;;;;;;5020453;28;20548;-70
2022/09/23 13:07:28;;;;;;;3.28;1.95;;;;;;;;;;5038957;28;20406;-70
2022/09/23 13:10:04;;;;;;;3.35;1.65;;;;;;;;;;5024271;28;20129;-71
2022/09/23 13:12:33;;;;;;;3.05;1.80;;;;;;;;;;5006580;28;20045;-70
2022/09/23 13:15:05;;;;;;;3.50;1.52;;;;;;;;;;5022355;28;20061;-69
2022/09/23 13:17:35;;;;;;;2.17;1.67;;;;;;;;;;5020165;28;20034;-71
2022/09/23 13:20:37;;;;;;;5.63;1.70;;;;;;;;;;5018713;28;20055;-71
2022/09/23 13:23:15;;;;;;;3.05;1.45;;;;;;;;;;5020168;28;20049;-69
2022/09/23 13:25:42;;;;;;;2.80;1.80;;;;;;;;;;5018739;28;20065;-70
2022/09/23 13:28:40;;;;;;;3.10;1.90;;;;;;;;;;5014627;28;20060;-71
2022/09/23 13:31:13;;;;;;;3.80;1.63;;;;;;;;;;5019789;28;20205;-69
2022/09/23 13:33:50;;;;;;;2.13;1.63;;;;;;;;;;5021050;28;20128;-70
2022/09/23 13:36:18;;;;;;;3.00;1.70;;;;;;;;;;5018594;28;20068;-69
2022/09/23 13:38:47;;;;;;;5.85;2.00;;;;;;;;;;5021071;28;20137;-70
2022/09/23 13:41:16;;;;;;;5.57;1.77;;;;;;;;;;5026561;28;20644;-71
2022/09/23 13:43:54;;;;;;;4.10;1.83;;;;;;;;;;5021677;28;20053;-71
2022/09/23 13:46:27;;;;;;;3.30;1.77;;;;;;;;;;5027392;28;20072;-69
2022/09/23 13:48:54;;;;;;;9.38;2.15;;;;;;;;;;5032589;28;20056;-69
2022/09/23 13:51:23;;;;;;;7.55;2.03;;;;;;;;;;5024944;28;20042;-70
2022/09/23 13:53:54;;;;;;;3.28;2.10;;;;;;;;;;5024109;28;20045;-73
2022/09/23 13:56:19;;;;;;;2.47;1.80;;;;;;;;;;5021976;28;20050;-71
2022/09/23 13:58:45;;;;;;;3.90;1.70;;;;;;;;;;5023056;28;20050;-69
2022/09/23 14:01:28;;;;;;;2.50;1.92;;;;;;;;;;5026872;28;20049;-68
2022/09/23 14:03:53;;;;;;;5.30;1.83;;;;;;;;;;5020370;28;20538;-70
2022/09/23 14:06:18;;;;;;;2.83;2.00;;;;;;;;;;5023916;28;20059;-71
2022/09/23 14:08:46;;;;;;;3.22;1.77;;;;;;;;;;5024411;28;20033;-71
2022/09/23 14:11:17;;;;;;;4.68;2.28;;;;;;;;;;5020906;28;20049;-74
2022/09/23 14:13:44;;;;;;;3.13;1.75;;;;;;;;;;5023726;28;20053;-73
2022/09/23 14:16:13;;;;;;;2.47;1.70;;;;;;;;;;5022626;28;20049;-71
2022/09/23 14:18:48;;;;;;;3.53;1.88;;;;;;;;;;5029319;28;20064;-72
2022/09/23 14:21:36;;;;;;;3.80;2.10;;;;;;;;;;5027097;28;20042;-71
2022/09/23 14:24:21;;;;;;;2.33;1.95;;;;;;;;;;5024301;28;20135;-72
2022/09/23 14:27:13;;;;;;;2.78;1.80;;;;;;;;;;5027379;28;20079;-71
2022/09/23 14:29:42;;;;;;;2.67;1.83;;;;;;;;;;5020542;28;20041;-70
2022/09/23 14:32:12;;;;;;;2.95;1.77;;;;;;;;;;5023606;28;20072;-72
2022/09/23 14:34:45;;;;;;;7.00;1.85;;;;;;;;;;5027432;28;20044;-71
2022/09/23 14:40:09;;;;;;;4.35;1.85;;;;;;;;;;5025194;28;20037;-72
2022/09/23 14:42:40;;;;;;;8.40;1.48;;;;;;;;;;5022608;28;20048;-72
2022/09/23 14:45:13;;;;;;;4.47;1.70;;;;;;;;;;5025712;28;20049;-70
2022/09/23 14:47:45;;;;;;;2.20;1.70;;;;;;;;;;5020538;28;20079;-70
2022/09/23 14:52:59;;;;;;;4.28;1.77;;;;;;;;;;5019835;28;20083;-70
2022/09/23 14:55:27;;;;;;;4.07;1.90;;;;;;;;;;5020279;28;20037;-71
2022/09/23 14:58:02;;;;;;;3.97;1.67;;;;;;;;;;5019925;28;20045;-69
2022/09/23 15:00:27;;;;;;;3.58;2.28;;;;;;;;;;5020112;28;20143;-69
2022/09/23 15:02:59;;;;;;;1.92;1.70;;;;;;;;;;5026515;28;20116;-70
2022/09/23 15:05:44;;;;;;;3.78;1.80;;;;;;;;;;5025467;28;20410;-70
2022/09/23 15:08:14;;;;;;;7.15;1.80;;;;;;;;;;5023589;28;20056;-70
2022/09/23 15:10:40;;;;;;;5.38;2.05;;;;;;;;;;5032667;28;20067;-70
2022/09/23 15:13:11;;;;;;;1.75;1.48;;;;;;;;;;5026879;28;20049;-70
2022/09/23 15:15:36;;;;;;;5.03;2.10;;;;;;;;;;5020503;28;20075;-70
2022/09/23 15:18:04;;;;;;;5.50;2.00;;;;;;;;;;5027123;28;20067;-70
2022/09/23 15:20:30;;;;;;;4.38;2.00;;;;;;;;;;5032006;28;20462;-70
2022/09/23 15:22:56;;;;;;;2.05;1.80;;;;;;;;;;5031356;28;20525;-70
2022/09/23 15:25:54;;;;;;;4.35;2.05;;;;;;;;;;5024455;28;20073;-70
2022/09/23 15:28:22;;;;;;;2.05;1.95;;;;;;;;;;5021462;28;20409;-70
2022/09/23 15:30:49;;;;;;;4.32;1.98;;;;;;;;;;5030248;28;20041;-70
2022/09/23 15:33:15;;;;;;;8.13;2.03;;;;;;;;;;5027314;28;20041;-70
2022/09/23 15:35:47;;;;;;;4.82;2.35;;;;;;;;;;5025252;28;20041;-70
2022/09/23 15:38:13;;;;;;;4.47;2.25;;;;;;;;;;5030045;28;20059;-70
2022/09/23 15:40:39;;;;;;;6.38;3.22;;;;;;;;;;5031506;28;20045;-70